San Luis, San Luis Airport (SAOU)

NameSan Luis Airport
CitySan Luis
CountryArgentina
ICAOSAOU
IATALUQ
Altitude710 m
CoordinatesGoogle Map
Live Air TrafficLiveATC.net
METARSAOU 170750Z 00000KT 0100 FG OVC006 05/05 Q1022 REDZ RMK ESTIMATED WIND
2019-06-17 07:50:00 Wind: North (0°) 0 m/s - Visibility: 100 m - Weather: Fog - Temperature: 5 °C - Dew point: 5 °C - Humidity: 100% - Pressure: 1022 hPa
Statistics

The table below shows the detailed information of all flights to/from San Luis, San Luis Airport (SAOU).